sensor_id;sensor_type;location;lat;lon;timestamp;temperature;humidity
42867;DHT22;39461;40.948;73.006;2022-09-20T00:02:23;19.10;68.40
42867;DHT22;39461;40.948;73.006;2022-09-20T00:04:58;19.10;69.40
42867;DHT22;39461;40.948;73.006;2022-09-20T00:07:31;19.10;69.10
42867;DHT22;39461;40.948;73.006;2022-09-20T00:10:04;19.00;68.20
42867;DHT22;39461;40.948;73.006;2022-09-20T00:12:37;19.00;68.30
42867;DHT22;39461;40.948;73.006;2022-09-20T00:15:10;19.00;68.60
42867;DHT22;39461;40.948;73.006;2022-09-20T00:17:43;19.00;68.80
42867;DHT22;39461;40.948;73.006;2022-09-20T00:20:16;19.00;68.40
42867;DHT22;39461;40.948;73.006;2022-09-20T00:22:50;19.00;68.40
42867;DHT22;39461;40.948;73.006;2022-09-20T00:25:22;19.00;67.90
42867;DHT22;39461;40.948;73.006;2022-09-20T00:27:56;18.90;68.50
42867;DHT22;39461;40.948;73.006;2022-09-20T00:30:29;18.90;68.20
42867;DHT22;39461;40.948;73.006;2022-09-20T00:33:02;18.90;68.50
42867;DHT22;39461;40.948;73.006;2022-09-20T00:35:35;18.90;68.70
42867;DHT22;39461;40.948;73.006;2022-09-20T00:38:09;19.00;69.60
42867;DHT22;39461;40.948;73.006;2022-09-20T00:40:44;18.90;68.20
42867;DHT22;39461;40.948;73.006;2022-09-20T00:43:42;19.00;68.00
42867;DHT22;39461;40.948;73.006;2022-09-20T00:46:41;18.90;67.70
42867;DHT22;39461;40.948;73.006;2022-09-20T00:49:41;18.90;68.20
42867;DHT22;39461;40.948;73.006;2022-09-20T00:52:16;19.00;68.80
42867;DHT22;39461;40.948;73.006;2022-09-20T00:54:52;18.90;68.10
42867;DHT22;39461;40.948;73.006;2022-09-20T00:57:27;19.00;68.30
42867;DHT22;39461;40.948;73.006;2022-09-20T01:00:10;19.10;68.40
42867;DHT22;39461;40.948;73.006;2022-09-20T01:02:48;19.10;68.70
42867;DHT22;39461;40.948;73.006;2022-09-20T01:05:51;19.10;67.80
42867;DHT22;39461;40.948;73.006;2022-09-20T01:08:27;19.20;67.80
42867;DHT22;39461;40.948;73.006;2022-09-20T01:11:02;19.10;67.70
42867;DHT22;39461;40.948;73.006;2022-09-20T01:13:36;19.20;68.20
42867;DHT22;39461;40.948;73.006;2022-09-20T01:16:12;19.20;66.50
42867;DHT22;39461;40.948;73.006;2022-09-20T01:18:51;19.20;66.80
42867;DHT22;39461;40.948;73.006;2022-09-20T01:21:29;19.20;66.80
42867;DHT22;39461;40.948;73.006;2022-09-20T01:24:36;19.20;66.90
42867;DHT22;39461;40.948;73.006;2022-09-20T01:30:23;19.10;67.20
42867;DHT22;39461;40.948;73.006;2022-09-20T01:33:12;19.10;67.70
42867;DHT22;39461;40.948;73.006;2022-09-20T01:35:46;19.10;68.40
42867;DHT22;39461;40.948;73.006;2022-09-20T01:41:23;19.10;70.10
42867;DHT22;39461;40.948;73.006;2022-09-20T01:50:24;19.20;71.40
42867;DHT22;39461;40.948;73.006;2022-09-20T01:53:17;19.30;71.40
42867;DHT22;39461;40.948;73.006;2022-09-20T02:07:30;19.60;70.40
42867;DHT22;39461;40.948;73.006;2022-09-20T02:10:46;19.70;70.80
42867;DHT22;39461;40.948;73.006;2022-09-20T02:14:06;19.80;70.80
42867;DHT22;39461;40.948;73.006;2022-09-20T02:17:01;20.00;70.00
42867;DHT22;39461;40.948;73.006;2022-09-20T02:28:59;20.30;70.10
42867;DHT22;39461;40.948;73.006;2022-09-20T02:31:59;20.40;70.60
42867;DHT22;39461;40.948;73.006;2022-09-20T02:44:00;20.90;70.10
42867;DHT22;39461;40.948;73.006;2022-09-20T02:49:21;21.10;70.50
42867;DHT22;39461;40.948;73.006;2022-09-20T02:52:14;21.20;68.60
42867;DHT22;39461;40.948;73.006;2022-09-20T02:55:09;21.40;68.60
42867;DHT22;39461;40.948;73.006;2022-09-20T03:00:41;21.60;70.10
42867;DHT22;39461;40.948;73.006;2022-09-20T03:03:27;21.70;69.50
42867;DHT22;39461;40.948;73.006;2022-09-20T03:14:58;22.30;68.80
42867;DHT22;39461;40.948;73.006;2022-09-20T03:20:57;22.80;64.50
42867;DHT22;39461;40.948;73.006;2022-09-20T03:26:43;23.20;66.10
42867;DHT22;39461;40.948;73.006;2022-09-20T03:40:47;24.10;61.00
42867;DHT22;39461;40.948;73.006;2022-09-20T03:46:29;24.30;60.20
42867;DHT22;39461;40.948;73.006;2022-09-20T03:52:35;24.70;60.30
42867;DHT22;39461;40.948;73.006;2022-09-20T04:01:12;25.00;58.90
42867;DHT22;39461;40.948;73.006;2022-09-20T04:04:07;25.00;59.20
42867;DHT22;39461;40.948;73.006;2022-09-20T04:07:03;25.00;58.60
42867;DHT22;39461;40.948;73.006;2022-09-20T04:20:01;25.30;57.40
42867;DHT22;39461;40.948;73.006;2022-09-20T04:22:35;25.50;57.00
42867;DHT22;39461;40.948;73.006;2022-09-20T04:25:22;25.70;57.30
42867;DHT22;39461;40.948;73.006;2022-09-20T04:30:59;26.00;55.90
42867;DHT22;39461;40.948;73.006;2022-09-20T04:33:40;26.20;56.40
42867;DHT22;39461;40.948;73.006;2022-09-20T04:36:36;26.30;56.00
42867;DHT22;39461;40.948;73.006;2022-09-20T04:53:32;26.70;56.80
42867;DHT22;39461;40.948;73.006;2022-09-20T04:56:34;26.70;56.60
42867;DHT22;39461;40.948;73.006;2022-09-20T05:02:36;27.00;57.80
42867;DHT22;39461;40.948;73.006;2022-09-20T05:29:23;27.20;59.00
42867;DHT22;39461;40.948;73.006;2022-09-20T05:32:53;27.30;58.80
42867;DHT22;39461;40.948;73.006;2022-09-20T05:35:30;27.30;58.60
42867;DHT22;39461;40.948;73.006;2022-09-20T05:41:09;27.30;58.90
42867;DHT22;39461;40.948;73.006;2022-09-20T05:44:21;27.60;59.10
42867;DHT22;39461;40.948;73.006;2022-09-20T05:47:39;27.70;58.10
42867;DHT22;39461;40.948;73.006;2022-09-20T05:50:33;27.70;58.50
42867;DHT22;39461;40.948;73.006;2022-09-20T05:53:39;27.90;58.60
42867;DHT22;39461;40.948;73.006;2022-09-20T06:11:03;28.40;57.50
42867;DHT22;39461;40.948;73.006;2022-09-20T06:22:49;28.40;57.60
42867;DHT22;39461;40.948;73.006;2022-09-20T06:25:47;28.30;57.80
42867;DHT22;39461;40.948;73.006;2022-09-20T06:28:34;28.40;56.90
42867;DHT22;39461;40.948;73.006;2022-09-20T06:31:09;28.30;57.40
42867;DHT22;39461;40.948;73.006;2022-09-20T06:36:28;28.50;57.60
42867;DHT22;39461;40.948;73.006;2022-09-20T06:42:34;28.60;56.90
42867;DHT22;39461;40.948;73.006;2022-09-20T06:45:07;28.60;57.10
42867;DHT22;39461;40.948;73.006;2022-09-20T06:47:40;28.60;56.80
42867;DHT22;39461;40.948;73.006;2022-09-20T06:50:17;28.70;56.90
42867;DHT22;39461;40.948;73.006;2022-09-20T06:52:50;28.80;57.30
42867;DHT22;39461;40.948;73.006;2022-09-20T06:55:29;29.00;56.90
42867;DHT22;39461;40.948;73.006;2022-09-20T06:58:10;29.10;56.30
42867;DHT22;39461;40.948;73.006;2022-09-20T07:00:43;29.30;56.30
42867;DHT22;39461;40.948;73.006;2022-09-20T07:03:21;29.30;56.10
42867;DHT22;39461;40.948;73.006;2022-09-20T07:05:56;29.30;55.30
42867;DHT22;39461;40.948;73.006;2022-09-20T07:08:31;29.40;56.00
42867;DHT22;39461;40.948;73.006;2022-09-20T07:11:14;29.40;55.50
42867;DHT22;39461;40.948;73.006;2022-09-20T07:13:55;29.40;54.90
42867;DHT22;39461;40.948;73.006;2022-09-20T07:16:31;29.50;55.40
42867;DHT22;39461;40.948;73.006;2022-09-20T07:19:06;29.50;54.90
42867;DHT22;39461;40.948;73.006;2022-09-20T07:21:39;29.60;54.60
42867;DHT22;39461;40.948;73.006;2022-09-20T07:24:13;29.70;54.60
42867;DHT22;39461;40.948;73.006;2022-09-20T07:26:59;29.70;54.80
42867;DHT22;39461;40.948;73.006;2022-09-20T07:29:38;29.70;54.50
42867;DHT22;39461;40.948;73.006;2022-09-20T07:32:12;29.70;54.90
42867;DHT22;39461;40.948;73.006;2022-09-20T07:34:42;29.80;54.90
42867;DHT22;39461;40.948;73.006;2022-09-20T07:37:15;29.70;55.00
42867;DHT22;39461;40.948;73.006;2022-09-20T07:39:48;29.70;55.30
42867;DHT22;39461;40.948;73.006;2022-09-20T07:42:21;29.80;54.90
42867;DHT22;39461;40.948;73.006;2022-09-20T07:44:54;29.80;54.50
42867;DHT22;39461;40.948;73.006;2022-09-20T07:47:35;29.90;54.20
42867;DHT22;39461;40.948;73.006;2022-09-20T07:50:12;29.80;55.40
42867;DHT22;39461;40.948;73.006;2022-09-20T07:52:47;30.00;55.50
42867;DHT22;39461;40.948;73.006;2022-09-20T07:55:20;30.00;54.70
42867;DHT22;39461;40.948;73.006;2022-09-20T07:57:53;30.10;55.10
42867;DHT22;39461;40.948;73.006;2022-09-20T08:00:27;30.30;55.20
42867;DHT22;39461;40.948;73.006;2022-09-20T08:03:00;30.20;55.10
42867;DHT22;39461;40.948;73.006;2022-09-20T08:06:01;30.30;55.10
42867;DHT22;39461;40.948;73.006;2022-09-20T08:08:37;30.30;54.50
42867;DHT22;39461;40.948;73.006;2022-09-20T08:11:16;30.50;54.70
42867;DHT22;39461;40.948;73.006;2022-09-20T08:13:54;30.20;55.60
42867;DHT22;39461;40.948;73.006;2022-09-20T08:16:30;30.20;55.70
42867;DHT22;39461;40.948;73.006;2022-09-20T08:19:06;30.10;55.60
42867;DHT22;39461;40.948;73.006;2022-09-20T08:21:40;30.20;56.10
42867;DHT22;39461;40.948;73.006;2022-09-20T08:24:13;30.10;56.40
42867;DHT22;39461;40.948;73.006;2022-09-20T08:26:48;30.20;55.80
42867;DHT22;39461;40.948;73.006;2022-09-20T08:29:22;30.20;56.20
42867;DHT22;39461;40.948;73.006;2022-09-20T08:31:58;30.30;56.20
42867;DHT22;39461;40.948;73.006;2022-09-20T08:34:33;30.50;56.00
42867;DHT22;39461;40.948;73.006;2022-09-20T08:37:06;30.50;55.60
42867;DHT22;39461;40.948;73.006;2022-09-20T08:39:39;30.50;55.50
42867;DHT22;39461;40.948;73.006;2022-09-20T08:42:30;30.60;56.00
42867;DHT22;39461;40.948;73.006;2022-09-20T08:45:09;30.60;55.80
42867;DHT22;39461;40.948;73.006;2022-09-20T08:47:55;30.70;55.80
42867;DHT22;39461;40.948;73.006;2022-09-20T08:50:29;30.80;55.60
42867;DHT22;39461;40.948;73.006;2022-09-20T08:53:04;30.80;54.80
42867;DHT22;39461;40.948;73.006;2022-09-20T08:55:39;30.70;54.50
42867;DHT22;39461;40.948;73.006;2022-09-20T08:58:20;30.60;54.30
42867;DHT22;39461;40.948;73.006;2022-09-20T09:00:54;30.80;53.90
42867;DHT22;39461;40.948;73.006;2022-09-20T09:03:31;30.70;53.50
42867;DHT22;39461;40.948;73.006;2022-09-20T09:06:10;30.70;53.80
42867;DHT22;39461;40.948;73.006;2022-09-20T09:08:48;30.50;54.60
42867;DHT22;39461;40.948;73.006;2022-09-20T09:11:26;30.50;55.80
42867;DHT22;39461;40.948;73.006;2022-09-20T09:14:25;30.30;55.80
42867;DHT22;39461;40.948;73.006;2022-09-20T09:17:21;30.10;55.20
42867;DHT22;39461;40.948;73.006;2022-09-20T09:19:58;30.20;56.30
42867;DHT22;39461;40.948;73.006;2022-09-20T09:22:44;30.10;55.80
42867;DHT22;39461;40.948;73.006;2022-09-20T09:25:38;30.20;55.40
42867;DHT22;39461;40.948;73.006;2022-09-20T09:28:14;30.20;56.80
42867;DHT22;39461;40.948;73.006;2022-09-20T09:30:49;30.30;55.70
42867;DHT22;39461;40.948;73.006;2022-09-20T09:33:32;30.30;54.70
42867;DHT22;39461;40.948;73.006;2022-09-20T09:38:40;30.20;55.40
42867;DHT22;39461;40.948;73.006;2022-09-20T09:44:01;30.10;55.30
42867;DHT22;39461;40.948;73.006;2022-09-20T09:46:38;30.10;56.60
42867;DHT22;39461;40.948;73.006;2022-09-20T09:49:20;30.00;56.10
42867;DHT22;39461;40.948;73.006;2022-09-20T09:54:49;30.00;56.30
42867;DHT22;39461;40.948;73.006;2022-09-20T10:00:19;30.20;56.80
42867;DHT22;39461;40.948;73.006;2022-09-20T10:03:12;30.10;57.20
42867;DHT22;39461;40.948;73.006;2022-09-20T10:06:16;30.10;57.90
42867;DHT22;39461;40.948;73.006;2022-09-20T10:09:13;30.10;57.50
42867;DHT22;39461;40.948;73.006;2022-09-20T10:21:11;29.90;57.10
42867;DHT22;39461;40.948;73.006;2022-09-20T10:29:31;29.70;56.30
42867;DHT22;39461;40.948;73.006;2022-09-20T10:35:19;29.80;55.70
42867;DHT22;39461;40.948;73.006;2022-09-20T10:38:13;29.90;55.80
42867;DHT22;39461;40.948;73.006;2022-09-20T10:41:16;29.80;55.80
42867;DHT22;39461;40.948;73.006;2022-09-20T10:59:41;29.70;57.10
42867;DHT22;39461;40.948;73.006;2022-09-20T11:02:16;29.60;57.20
42867;DHT22;39461;40.948;73.006;2022-09-20T11:07:58;29.50;57.60
42867;DHT22;39461;40.948;73.006;2022-09-20T11:10:45;29.40;58.10
42867;DHT22;39461;40.948;73.006;2022-09-20T11:13:39;29.40;58.60
42867;DHT22;39461;40.948;73.006;2022-09-20T11:16:26;29.30;57.80
42867;DHT22;39461;40.948;73.006;2022-09-20T11:27:52;29.20;58.90
42867;DHT22;39461;40.948;73.006;2022-09-20T11:30:33;29.10;59.20
42867;DHT22;39461;40.948;73.006;2022-09-20T11:33:24;29.00;59.90
42867;DHT22;39461;40.948;73.006;2022-09-20T11:35:56;29.00;60.00
42867;DHT22;39461;40.948;73.006;2022-09-20T11:39:02;28.90;59.90
42867;DHT22;39461;40.948;73.006;2022-09-20T11:41:35;28.90;59.70
42867;DHT22;39461;40.948;73.006;2022-09-20T11:44:15;28.80;60.50
42867;DHT22;39461;40.948;73.006;2022-09-20T11:46:59;28.70;60.60
42867;DHT22;39461;40.948;73.006;2022-09-20T11:58:15;28.50;60.60
42867;DHT22;39461;40.948;73.006;2022-09-20T12:00:57;28.40;61.10
42867;DHT22;39461;40.948;73.006;2022-09-20T12:03:37;28.30;60.70
42867;DHT22;39461;40.948;73.006;2022-09-20T12:06:30;28.30;60.60
42867;DHT22;39461;40.948;73.006;2022-09-20T12:09:39;28.20;60.90
42867;DHT22;39461;40.948;73.006;2022-09-20T12:12:27;28.20;61.20
42867;DHT22;39461;40.948;73.006;2022-09-20T12:15:05;28.10;61.50
42867;DHT22;39461;40.948;73.006;2022-09-20T12:28:55;28.00;62.00
42867;DHT22;39461;40.948;73.006;2022-09-20T12:39:31;27.90;64.30
42867;DHT22;39461;40.948;73.006;2022-09-20T12:42:29;27.80;63.30
42867;DHT22;39461;40.948;73.006;2022-09-20T12:45:14;27.80;64.30
42867;DHT22;39461;40.948;73.006;2022-09-20T12:47:52;27.70;64.70
42867;DHT22;39461;40.948;73.006;2022-09-20T12:50:27;27.60;64.80
42867;DHT22;39461;40.948;73.006;2022-09-20T12:53:20;27.50;65.30
42867;DHT22;39461;40.948;73.006;2022-09-20T12:58:47;27.30;65.00
42867;DHT22;39461;40.948;73.006;2022-09-20T13:07:41;27.00;64.80
42867;DHT22;39461;40.948;73.006;2022-09-20T13:10:23;26.90;64.80
42867;DHT22;39461;40.948;73.006;2022-09-20T13:13:12;26.90;64.90
42867;DHT22;39461;40.948;73.006;2022-09-20T13:15:50;26.80;64.30
42867;DHT22;39461;40.948;73.006;2022-09-20T13:18:27;26.80;64.60
42867;DHT22;39461;40.948;73.006;2022-09-20T13:21:02;26.70;64.40
42867;DHT22;39461;40.948;73.006;2022-09-20T13:23:48;26.60;64.60
42867;DHT22;39461;40.948;73.006;2022-09-20T13:26:27;26.40;65.50
42867;DHT22;39461;40.948;73.006;2022-09-20T13:29:06;26.40;65.90
42867;DHT22;39461;40.948;73.006;2022-09-20T13:31:43;26.20;66.50
42867;DHT22;39461;40.948;73.006;2022-09-20T13:34:14;26.10;66.70
42867;DHT22;39461;40.948;73.006;2022-09-20T13:36:46;26.00;66.90
42867;DHT22;39461;40.948;73.006;2022-09-20T13:39:32;26.00;66.80
42867;DHT22;39461;40.948;73.006;2022-09-20T13:42:14;25.90;67.20
42867;DHT22;39461;40.948;73.006;2022-09-20T13:44:51;25.90;66.90
42867;DHT22;39461;40.948;73.006;2022-09-20T13:47:26;25.80;66.90
42867;DHT22;39461;40.948;73.006;2022-09-20T13:53:01;25.80;66.40
42867;DHT22;39461;40.948;73.006;2022-09-20T13:55:37;25.70;66.30
42867;DHT22;39461;40.948;73.006;2022-09-20T13:58:27;25.70;66.00
42867;DHT22;39461;40.948;73.006;2022-09-20T14:01:05;25.70;65.90
42867;DHT22;39461;40.948;73.006;2022-09-20T14:03:47;25.60;65.70
42867;DHT22;39461;40.948;73.006;2022-09-20T14:06:28;25.60;66.30
42867;DHT22;39461;40.948;73.006;2022-09-20T14:09:09;25.40;66.40
42867;DHT22;39461;40.948;73.006;2022-09-20T14:11:52;25.40;66.70
42867;DHT22;39461;40.948;73.006;2022-09-20T14:14:26;25.30;67.00
42867;DHT22;39461;40.948;73.006;2022-09-20T14:17:00;25.30;67.00
42867;DHT22;39461;40.948;73.006;2022-09-20T14:19:39;25.20;66.70
42867;DHT22;39461;40.948;73.006;2022-09-20T14:22:26;25.20;66.60
42867;DHT22;39461;40.948;73.006;2022-09-20T14:27:45;25.10;66.80
42867;DHT22;39461;40.948;73.006;2022-09-20T14:30:30;25.10;67.10
42867;DHT22;39461;40.948;73.006;2022-09-20T14:33:06;25.10;66.70
42867;DHT22;39461;40.948;73.006;2022-09-20T14:35:52;25.00;66.80
42867;DHT22;39461;40.948;73.006;2022-09-20T14:38:26;25.00;66.50
42867;DHT22;39461;40.948;73.006;2022-09-20T14:40:59;25.00;67.10
42867;DHT22;39461;40.948;73.006;2022-09-20T14:43:36;24.90;67.20
42867;DHT22;39461;40.948;73.006;2022-09-20T14:46:15;24.80;67.20
42867;DHT22;39461;40.948;73.006;2022-09-20T14:48:52;24.80;67.30
42867;DHT22;39461;40.948;73.006;2022-09-20T14:51:25;24.80;67.10
42867;DHT22;39461;40.948;73.006;2022-09-20T14:54:15;24.80;67.30
42867;DHT22;39461;40.948;73.006;2022-09-20T14:56:54;24.80;68.00
42867;DHT22;39461;40.948;73.006;2022-09-20T14:59:41;24.80;67.70
42867;DHT22;39461;40.948;73.006;2022-09-20T15:02:17;24.80;67.30
42867;DHT22;39461;40.948;73.006;2022-09-20T15:04:57;24.70;66.70
42867;DHT22;39461;40.948;73.006;2022-09-20T15:07:57;24.60;66.60
42867;DHT22;39461;40.948;73.006;2022-09-20T15:10:32;24.60;66.90
42867;DHT22;39461;40.948;73.006;2022-09-20T15:13:09;24.50;67.10
42867;DHT22;39461;40.948;73.006;2022-09-20T15:15:52;24.40;67.30
42867;DHT22;39461;40.948;73.006;2022-09-20T15:18:50;24.30;67.40
42867;DHT22;39461;40.948;73.006;2022-09-20T15:21:25;24.30;67.70
42867;DHT22;39461;40.948;73.006;2022-09-20T15:24:24;24.30;67.70
42867;DHT22;39461;40.948;73.006;2022-09-20T15:26:56;24.30;67.70
42867;DHT22;39461;40.948;73.006;2022-09-20T15:29:31;24.30;67.80
42867;DHT22;39461;40.948;73.006;2022-09-20T15:32:08;24.20;67.90
42867;DHT22;39461;40.948;73.006;2022-09-20T15:34:39;24.20;67.70
42867;DHT22;39461;40.948;73.006;2022-09-20T15:37:11;24.10;67.90
42867;DHT22;39461;40.948;73.006;2022-09-20T15:39:44;24.10;67.90
42867;DHT22;39461;40.948;73.006;2022-09-20T15:42:19;23.90;67.80
42867;DHT22;39461;40.948;73.006;2022-09-20T15:44:55;23.90;67.90
42867;DHT22;39461;40.948;73.006;2022-09-20T15:47:30;23.90;67.70
42867;DHT22;39461;40.948;73.006;2022-09-20T15:50:04;23.90;67.70
42867;DHT22;39461;40.948;73.006;2022-09-20T15:52:43;23.80;67.60
42867;DHT22;39461;40.948;73.006;2022-09-20T15:55:19;23.80;67.70
42867;DHT22;39461;40.948;73.006;2022-09-20T15:57:52;23.80;67.80
42867;DHT22;39461;40.948;73.006;2022-09-20T16:00:25;23.80;67.70
42867;DHT22;39461;40.948;73.006;2022-09-20T16:03:00;23.80;67.60
42867;DHT22;39461;40.948;73.006;2022-09-20T16:05:35;23.80;67.70
42867;DHT22;39461;40.948;73.006;2022-09-20T16:08:08;23.80;67.80
42867;DHT22;39461;40.948;73.006;2022-09-20T16:10:43;23.80;68.00
42867;DHT22;39461;40.948;73.006;2022-09-20T16:13:29;23.80;67.80
42867;DHT22;39461;40.948;73.006;2022-09-20T16:16:05;23.80;67.50
42867;DHT22;39461;40.948;73.006;2022-09-20T16:18:39;23.80;67.50
42867;DHT22;39461;40.948;73.006;2022-09-20T16:21:33;23.70;67.70
42867;DHT22;39461;40.948;73.006;2022-09-20T16:24:10;23.70;67.90
42867;DHT22;39461;40.948;73.006;2022-09-20T16:26:45;23.60;67.90
42867;DHT22;39461;40.948;73.006;2022-09-20T16:29:18;23.60;67.90
42867;DHT22;39461;40.948;73.006;2022-09-20T16:31:54;23.60;68.10
42867;DHT22;39461;40.948;73.006;2022-09-20T16:34:33;23.60;67.80
42867;DHT22;39461;40.948;73.006;2022-09-20T16:37:11;23.60;67.90
42867;DHT22;39461;40.948;73.006;2022-09-20T16:39:48;23.50;67.60
42867;DHT22;39461;40.948;73.006;2022-09-20T16:42:20;23.50;67.80
42867;DHT22;39461;40.948;73.006;2022-09-20T16:44:54;23.50;67.60
42867;DHT22;39461;40.948;73.006;2022-09-20T16:47:28;23.50;67.80
42867;DHT22;39461;40.948;73.006;2022-09-20T16:50:02;23.40;67.90
42867;DHT22;39461;40.948;73.006;2022-09-20T16:52:38;23.40;68.10
42867;DHT22;39461;40.948;73.006;2022-09-20T16:55:13;23.30;68.20
42867;DHT22;39461;40.948;73.006;2022-09-20T16:57:49;23.30;68.30
42867;DHT22;39461;40.948;73.006;2022-09-20T17:00:23;23.20;68.40
42867;DHT22;39461;40.948;73.006;2022-09-20T17:02:56;23.20;68.50
42867;DHT22;39461;40.948;73.006;2022-09-20T17:05:31;23.20;68.70
42867;DHT22;39461;40.948;73.006;2022-09-20T17:08:06;23.10;68.50
42867;DHT22;39461;40.948;73.006;2022-09-20T17:10:42;23.10;68.70
42867;DHT22;39461;40.948;73.006;2022-09-20T17:13:15;23.00;68.70
42867;DHT22;39461;40.948;73.006;2022-09-20T17:15:59;22.90;68.70
42867;DHT22;39461;40.948;73.006;2022-09-20T17:18:32;22.90;68.90
42867;DHT22;39461;40.948;73.006;2022-09-20T17:21:14;22.90;68.70
42867;DHT22;39461;40.948;73.006;2022-09-20T17:24:13;22.80;68.70
42867;DHT22;39461;40.948;73.006;2022-09-20T17:26:49;22.80;68.60
42867;DHT22;39461;40.948;73.006;2022-09-20T17:29:23;22.80;69.00
42867;DHT22;39461;40.948;73.006;2022-09-20T17:31:58;22.70;69.30
42867;DHT22;39461;40.948;73.006;2022-09-20T17:34:25;22.80;68.70
42867;DHT22;39461;40.948;73.006;2022-09-20T17:36:55;22.80;68.70
42867;DHT22;39461;40.948;73.006;2022-09-20T17:39:34;22.80;68.70
42867;DHT22;39461;40.948;73.006;2022-09-20T17:42:06;22.80;68.60
42867;DHT22;39461;40.948;73.006;2022-09-20T17:44:43;22.70;68.70
42867;DHT22;39461;40.948;73.006;2022-09-20T17:47:16;22.60;68.90
42867;DHT22;39461;40.948;73.006;2022-09-20T17:49:51;22.70;68.70
42867;DHT22;39461;40.948;73.006;2022-09-20T17:52:27;22.60;68.80
42867;DHT22;39461;40.948;73.006;2022-09-20T17:55:04;22.60;68.90
42867;DHT22;39461;40.948;73.006;2022-09-20T17:57:39;22.60;69.00
42867;DHT22;39461;40.948;73.006;2022-09-20T18:00:14;22.60;69.10
42867;DHT22;39461;40.948;73.006;2022-09-20T18:02:47;22.50;68.90
42867;DHT22;39461;40.948;73.006;2022-09-20T18:05:22;22.50;68.90
42867;DHT22;39461;40.948;73.006;2022-09-20T18:07:55;22.50;69.00
42867;DHT22;39461;40.948;73.006;2022-09-20T18:10:29;22.50;69.10
42867;DHT22;39461;40.948;73.006;2022-09-20T18:13:11;22.40;69.30
42867;DHT22;39461;40.948;73.006;2022-09-20T18:15:44;22.30;69.10
42867;DHT22;39461;40.948;73.006;2022-09-20T18:18:19;22.30;69.20
42867;DHT22;39461;40.948;73.006;2022-09-20T18:20:52;22.30;69.30
42867;DHT22;39461;40.948;73.006;2022-09-20T18:23:28;22.30;69.10
42867;DHT22;39461;40.948;73.006;2022-09-20T18:26:11;22.20;69.10
42867;DHT22;39461;40.948;73.006;2022-09-20T18:29:16;22.20;69.00
42867;DHT22;39461;40.948;73.006;2022-09-20T18:31:55;22.20;69.10
42867;DHT22;39461;40.948;73.006;2022-09-20T18:34:29;22.20;69.10
42867;DHT22;39461;40.948;73.006;2022-09-20T18:37:02;22.10;69.00
42867;DHT22;39461;40.948;73.006;2022-09-20T18:39:38;22.20;69.20
42867;DHT22;39461;40.948;73.006;2022-09-20T18:42:13;22.10;69.10
42867;DHT22;39461;40.948;73.006;2022-09-20T18:44:46;22.00;69.00
42867;DHT22;39461;40.948;73.006;2022-09-20T18:47:20;22.10;69.00
42867;DHT22;39461;40.948;73.006;2022-09-20T18:49:55;22.10;69.00
42867;DHT22;39461;40.948;73.006;2022-09-20T18:52:30;22.10;69.10
42867;DHT22;39461;40.948;73.006;2022-09-20T18:55:05;22.00;68.90
42867;DHT22;39461;40.948;73.006;2022-09-20T18:57:40;22.00;69.10
42867;DHT22;39461;40.948;73.006;2022-09-20T19:00:16;22.00;69.20
42867;DHT22;39461;40.948;73.006;2022-09-20T19:02:57;22.00;69.20
42867;DHT22;39461;40.948;73.006;2022-09-20T19:05:44;21.90;69.20
42867;DHT22;39461;40.948;73.006;2022-09-20T19:08:27;21.90;69.20
42867;DHT22;39461;40.948;73.006;2022-09-20T19:11:25;21.90;69.20
42867;DHT22;39461;40.948;73.006;2022-09-20T19:14:17;21.80;69.30
42867;DHT22;39461;40.948;73.006;2022-09-20T19:16:59;21.80;69.20
42867;DHT22;39461;40.948;73.006;2022-09-20T19:20:00;21.70;69.20
42867;DHT22;39461;40.948;73.006;2022-09-20T19:25:41;21.70;69.40
42867;DHT22;39461;40.948;73.006;2022-09-20T19:28:18;21.70;69.40
42867;DHT22;39461;40.948;73.006;2022-09-20T19:30:51;21.70;69.20
42867;DHT22;39461;40.948;73.006;2022-09-20T19:33:26;21.70;69.10
42867;DHT22;39461;40.948;73.006;2022-09-20T19:35:55;21.70;69.10
42867;DHT22;39461;40.948;73.006;2022-09-20T19:38:40;21.80;69.30
42867;DHT22;39461;40.948;73.006;2022-09-20T19:41:46;21.70;68.90
42867;DHT22;39461;40.948;73.006;2022-09-20T19:44:24;21.70;69.00
42867;DHT22;39461;40.948;73.006;2022-09-20T19:52:49;21.60;69.10
42867;DHT22;39461;40.948;73.006;2022-09-20T19:55:24;21.60;69.20
42867;DHT22;39461;40.948;73.006;2022-09-20T19:58:00;21.60;69.00
42867;DHT22;39461;40.948;73.006;2022-09-20T20:00:35;21.50;68.80
42867;DHT22;39461;40.948;73.006;2022-09-20T20:03:11;21.50;68.70
42867;DHT22;39461;40.948;73.006;2022-09-20T20:08:43;21.50;68.70
42867;DHT22;39461;40.948;73.006;2022-09-20T20:20:29;21.40;68.40
42867;DHT22;39461;40.948;73.006;2022-09-20T20:26:22;21.40;68.30
42867;DHT22;39461;40.948;73.006;2022-09-20T20:28:55;21.40;68.30
42867;DHT22;39461;40.948;73.006;2022-09-20T20:31:30;21.30;68.20
42867;DHT22;39461;40.948;73.006;2022-09-20T20:34:10;21.30;68.20
42867;DHT22;39461;40.948;73.006;2022-09-20T20:36:49;21.30;68.40
42867;DHT22;39461;40.948;73.006;2022-09-20T20:39:27;21.30;68.40
42867;DHT22;39461;40.948;73.006;2022-09-20T20:42:07;21.20;68.20
42867;DHT22;39461;40.948;73.006;2022-09-20T20:44:43;21.20;68.10
42867;DHT22;39461;40.948;73.006;2022-09-20T20:47:16;21.20;68.10
42867;DHT22;39461;40.948;73.006;2022-09-20T20:50:15;21.30;68.00
42867;DHT22;39461;40.948;73.006;2022-09-20T20:52:53;21.20;67.70
42867;DHT22;39461;40.948;73.006;2022-09-20T20:55:28;21.20;67.90
42867;DHT22;39461;40.948;73.006;2022-09-20T20:58:04;21.10;68.00
42867;DHT22;39461;40.948;73.006;2022-09-20T21:00:40;21.10;67.90
42867;DHT22;39461;40.948;73.006;2022-09-20T21:03:15;21.10;67.90
42867;DHT22;39461;40.948;73.006;2022-09-20T21:05:54;21.00;67.90
42867;DHT22;39461;40.948;73.006;2022-09-20T21:08:35;21.00;68.00
42867;DHT22;39461;40.948;73.006;2022-09-20T21:11:12;21.00;67.90
42867;DHT22;39461;40.948;73.006;2022-09-20T21:13:45;21.00;68.00
42867;DHT22;39461;40.948;73.006;2022-09-20T21:16:24;20.90;67.80
42867;DHT22;39461;40.948;73.006;2022-09-20T21:19:00;20.90;67.80
42867;DHT22;39461;40.948;73.006;2022-09-20T21:21:35;20.90;67.90
42867;DHT22;39461;40.948;73.006;2022-09-20T21:24:14;20.90;67.80
42867;DHT22;39461;40.948;73.006;2022-09-20T21:26:48;20.90;67.60
42867;DHT22;39461;40.948;73.006;2022-09-20T21:29:26;20.90;67.60
42867;DHT22;39461;40.948;73.006;2022-09-20T21:31:59;20.90;67.60
42867;DHT22;39461;40.948;73.006;2022-09-20T21:34:28;20.90;67.60